Time;durP1;ratioP1;P1;durP2;ratioP2;P2;SDS_P1;SDS_P2;PMS_P1;PMS_P2;Temp;Humidity;BMP_temperature;BMP_pressure;BME280_temperature;BME280_humidity;BME280_pressure;Samples;Min_cycle;Max_cycle;Signal;HPM_P1;HPM_P2
2024/01/03 05:22:33;;;;;;;1.83;0.80;;;;;;;10.00;100.00;98549.09;5089304;28;20401;-38
2024/01/03 05:24:59;;;;;;;5.57;1.40;;;;;;;10.04;100.00;98553.81;5089658;28;20488;-38
2024/01/03 05:27:25;;;;;;;2.60;0.88;;;;;;;10.01;100.00;98556.88;5089157;28;20101;-37
2024/01/03 05:29:50;;;;;;;1.85;1.10;;;;;;;9.97;100.00;98555.63;5089135;28;20036;-37
2024/01/03 05:32:16;;;;;;;1.85;1.15;;;;;;;9.88;100.00;98550.78;5089389;28;20594;-38
2024/01/03 05:34:42;;;;;;;6.03;1.20;;;;;;;9.92;100.00;98552.00;5089212;28;20407;-38
2024/01/03 05:37:07;;;;;;;4.85;1.30;;;;;;;10.00;99.21;98547.25;5088900;28;20124;-38
2024/01/03 05:39:32;;;;;;;5.10;1.35;;;;;;;10.04;98.94;98550.28;5089033;28;20047;-38
2024/01/03 05:41:58;;;;;;;5.93;1.15;;;;;;;10.06;98.81;98559.72;5089038;28;20041;-40
2024/01/03 05:44:23;;;;;;;3.72;1.27;;;;;;;10.10;98.66;98556.63;5088953;28;20047;-37
2024/01/03 05:46:48;;;;;;;2.63;1.20;;;;;;;10.05;99.03;98563.41;5088677;28;20566;-37
2024/01/03 05:49:14;;;;;;;2.33;1.05;;;;;;;10.10;98.49;98553.97;5089146;28;20097;-37
2024/01/03 05:51:40;;;;;;;3.38;1.50;;;;;;;10.21;97.98;98553.31;5088939;28;20484;-38
2024/01/03 05:54:05;;;;;;;5.43;1.17;;;;;;;10.15;98.67;98549.66;5088874;28;20047;-38
2024/01/03 05:56:31;;;;;;;2.22;1.35;;;;;;;10.18;98.94;98553.75;5088543;28;20461;-37
2024/01/03 05:58:56;;;;;;;1.70;0.82;;;;;;;10.11;99.39;98547.63;5088912;28;20445;-38
2024/01/03 06:01:21;;;;;;;3.70;1.17;;;;;;;10.19;98.20;98548.19;5088652;28;20044;-37
2024/01/03 06:03:47;;;;;;;5.07;1.30;;;;;;;10.02;100.00;98550.50;5088757;28;20047;-37
2024/01/03 06:06:12;;;;;;;5.30;1.50;;;;;;;10.14;99.55;98548.00;5088309;28;20126;-38
2024/01/03 06:08:38;;;;;;;2.88;1.08;;;;;;;10.16;99.24;98555.78;5088692;28;20036;-38
2024/01/03 06:11:03;;;;;;;3.67;1.30;;;;;;;10.18;99.60;98559.06;5088617;28;20081;-37
2024/01/03 06:13:29;;;;;;;1.75;1.42;;;;;;;10.05;100.00;98552.78;5088553;28;20503;-37
2024/01/03 06:15:54;;;;;;;3.75;0.98;;;;;;;9.94;100.00;98556.06;5086714;28;20124;-37
2024/01/03 06:18:21;;;;;;;3.58;1.08;;;;;;;10.02;100.00;98563.00;5089365;28;20569;-36
2024/01/03 06:20:46;;;;;;;4.47;1.10;;;;;;;10.05;100.00;98552.78;5089936;28;20082;-36
2024/01/03 06:23:12;;;;;;;3.50;1.25;;;;;;;10.10;100.00;98553.97;5091342;28;20036;-37
2024/01/03 06:25:37;;;;;;;3.10;1.23;;;;;;;10.10;100.00;98553.97;5091517;28;20040;-37
2024/01/03 06:28:04;;;;;;;5.78;1.35;;;;;;;10.19;100.00;98556.19;5089928;28;20408;-37
2024/01/03 06:30:29;;;;;;;2.08;0.77;;;;;;;10.11;100.00;98547.63;5087633;28;20131;-36
2024/01/03 06:32:55;;;;;;;7.13;1.42;;;;;;;10.07;100.00;98552.56;5080207;28;20127;-37
2024/01/03 06:35:20;;;;;;;2.42;1.05;;;;;;;10.13;100.00;98538.41;5074447;28;20457;-37
2024/01/03 06:37:46;;;;;;;1.45;0.85;;;;;;;10.15;100.00;98548.81;5074236;28;20066;-37
2024/01/03 06:40:11;;;;;;;3.15;1.20;;;;;;;10.04;100.00;98551.13;5073850;28;20043;-37
2024/01/03 06:42:37;;;;;;;6.32;1.50;;;;;;;10.14;100.00;98547.19;5074176;28;20044;-37
2024/01/03 06:45:03;;;;;;;3.55;1.20;;;;;;;10.11;100.00;98552.97;5074264;28;20036;-37
2024/01/03 06:47:28;;;;;;;5.57;1.60;;;;;;;10.10;100.00;98545.97;5074076;28;20036;-37
2024/01/03 06:49:53;;;;;;;4.55;0.98;;;;;;;10.15;100.00;98546.16;5073937;28;20041;-37
2024/01/03 06:52:19;;;;;;;2.42;1.23;;;;;;;10.17;100.00;98552.09;5074087;28;20036;-38
2024/01/03 06:54:44;;;;;;;2.83;0.90;;;;;;;10.14;100.00;98547.19;5074053;28;20492;-37
2024/01/03 06:57:09;;;;;;;4.13;1.35;;;;;;;10.06;100.00;98551.75;5073942;28;20066;-37
2024/01/03 06:59:38;;;;;;;0.77;0.75;;;;;;;10.26;100.00;98550.88;5074219;28;20045;-37
2024/01/03 07:02:04;;;;;;;3.22;1.35;;;;;;;10.23;100.00;98540.63;5073982;28;20044;-37
2024/01/03 07:04:29;;;;;;;3.55;1.05;;;;;;;10.30;100.00;98536.09;5073924;28;20040;-37
2024/01/03 07:06:56;;;;;;;4.28;0.80;;;;;;;10.15;100.00;98538.19;5073645;28;20074;-37
2024/01/03 07:09:22;;;;;;;6.20;1.33;;;;;;;10.26;100.00;98540.22;5074040;28;20040;-37
2024/01/03 07:11:48;;;;;;;3.00;0.90;;;;;;;10.31;100.00;98543.88;5073990;28;20418;-37
2024/01/03 07:14:13;;;;;;;1.70;1.00;;;;;;;10.26;100.00;98540.22;5073800;28;20044;-37
2024/01/03 07:16:39;;;;;;;2.20;0.98;;;;;;;10.25;100.00;98533.28;5073536;28;20056;-37
2024/01/03 07:19:05;;;;;;;2.83;1.15;;;;;;;10.38;100.00;98537.72;5073831;28;20056;-37
2024/01/03 07:21:31;;;;;;;5.53;1.73;;;;;;;10.33;100.00;98533.03;5073307;28;20032;-37
2024/01/03 07:23:56;;;;;;;4.10;1.30;;;;;;;10.37;99.51;98552.03;5073604;28;20124;-39
2024/01/03 07:26:21;;;;;;;9.88;1.73;;;;;;;10.35;99.87;98541.59;5072783;28;20052;-37
2024/01/03 07:28:47;;;;;;;6.25;1.48;;;;;;;10.42;98.75;98533.56;5072424;28;20037;-36
2024/01/03 07:31:12;;;;;;;4.32;1.42;;;;;;;10.50;97.41;98538.66;5072611;28;20508;-37
2024/01/03 07:33:40;;;;;;;4.10;1.45;;;;;;;10.47;97.50;98529.25;5072764;28;20503;-37
2024/01/03 07:36:07;;;;;;;6.90;1.67;;;;;;;10.55;96.94;98544.97;5072827;28;20043;-37
2024/01/03 07:38:32;;;;;;;2.53;0.88;;;;;;;10.48;97.10;98538.84;5073393;28;20214;-37
2024/01/03 07:40:58;;;;;;;2.50;1.27;;;;;;;10.49;96.76;98535.16;5073362;28;20036;-37
2024/01/03 07:43:24;;;;;;;3.05;1.30;;;;;;;10.59;95.96;98535.53;5072893;28;20048;-37
2024/01/03 07:45:49;;;;;;;1.42;0.80;;;;;;;10.60;95.38;98542.47;5072045;28;20041;-37
2024/01/03 07:48:15;;;;;;;2.35;1.13;;;;;;;10.64;95.60;98542.06;5073049;28;20037;-37
2024/01/03 07:50:41;;;;;;;1.20;0.95;;;;;;;10.73;94.33;98536.25;5073060;28;20401;-36
2024/01/03 07:53:07;;;;;;;3.85;1.10;;;;;;;10.81;93.60;98527.19;5073203;28;20076;-36
2024/01/03 07:55:33;;;;;;;1.90;1.15;;;;;;;10.92;92.10;98526.50;5068749;28;20106;-37
2024/01/03 07:57:58;;;;;;;6.43;1.40;;;;;;;10.78;93.76;98530.28;5061967;28;20488;-36
2024/01/03 08:00:23;;;;;;;4.10;1.13;;;;;;;10.92;92.25;98521.16;5063554;28;20079;-37
2024/01/03 08:02:49;;;;;;;3.22;0.63;;;;;;;10.82;93.20;98531.47;5060127;28;20106;-36
2024/01/03 08:05:14;;;;;;;3.05;1.33;;;;;;;10.88;92.99;98542.06;5062684;28;20120;-37
2024/01/03 08:07:40;;;;;;;2.00;0.80;;;;;;;11.03;91.75;98540.97;5062943;28;20025;-37
2024/01/03 08:10:06;;;;;;;2.47;0.80;;;;;;;10.99;92.29;98529.91;5061192;28;20037;-37
2024/01/03 08:12:31;;;;;;;14.63;1.40;;;;;;;10.97;94.13;98526.66;5062069;28;20032;-37
2024/01/03 08:14:56;;;;;;;0.77;0.50;;;;;;;10.81;95.99;98537.81;5060336;28;20028;-36
2024/01/03 08:17:22;;;;;;;2.67;0.85;;;;;;;10.90;94.58;98531.22;5061867;28;20028;-37
2024/01/03 08:19:47;;;;;;;4.30;1.10;;;;;;;10.92;95.05;98545.13;5062792;28;20047;-36
2024/01/03 08:22:13;;;;;;;5.00;1.50;;;;;;;10.90;94.70;98522.41;5061006;28;20029;-37
2024/01/03 08:24:38;;;;;;;2.58;1.10;;;;;;;10.98;94.19;98533.59;5062554;28;20072;-37
2024/01/03 08:27:04;;;;;;;5.00;1.33;;;;;;;10.98;94.22;98544.28;5052118;28;20492;-37
2024/01/03 08:29:30;;;;;;;4.65;1.88;;;;;;;11.08;93.04;98533.94;5052387;28;20037;-36
2024/01/03 08:31:56;;;;;;;1.48;0.85;;;;;;;11.06;92.80;98522.69;5052248;28;20508;-37
2024/01/03 08:34:21;;;;;;;3.60;0.98;;;;;;;11.04;92.87;98535.41;5052348;28;20037;-37
2024/01/03 08:36:47;;;;;;;3.15;1.05;;;;;;;11.18;91.61;98530.78;5052002;28;20037;-37
2024/01/03 08:39:12;;;;;;;6.70;1.80;;;;;;;11.17;91.39;98523.81;5052333;28;20048;-38
2024/01/03 08:41:38;;;;;;;3.78;1.10;;;;;;;11.10;92.74;98521.22;5052112;28;20086;-37
2024/01/03 08:44:07;;;;;;;5.10;0.80;;;;;;;11.12;91.68;98528.97;5052228;28;20045;-36
2024/01/03 08:46:38;;;;;;;7.40;1.08;;;;;;;11.16;91.95;98534.72;5051695;28;20044;-37
2024/01/03 08:49:04;;;;;;;4.13;1.10;;;;;;;11.25;91.54;98528.06;5052102;28;20053;-36
2024/01/03 08:51:29;;;;;;;15.25;2.05;;;;;;;11.25;91.73;98544.03;5052124;28;20044;-37
2024/01/03 08:53:55;;;;;;;4.55;0.73;;;;;;;11.25;91.06;98520.06;5052015;28;20049;-37
2024/01/03 08:56:20;;;;;;;4.43;1.00;;;;;;;11.27;90.77;98536.63;5051410;28;20033;-38
2024/01/03 08:58:47;;;;;;;3.47;1.00;;;;;;;11.12;92.09;98536.97;5052190;28;20154;-37
2024/01/03 09:01:16;;;;;;;7.20;1.23;;;;;;;11.16;92.44;98535.53;5051722;28;20037;-37
2024/01/03 09:03:42;;;;;;;3.28;0.98;;;;;;;11.14;93.74;98542.91;5051822;28;20043;-37
2024/01/03 09:06:08;;;;;;;5.93;1.10;;;;;;;10.96;95.47;98546.34;5051612;28;20392;-36
2024/01/03 09:08:33;;;;;;;2.42;1.17;;;;;;;10.96;94.74;98549.00;5052013;28;20407;-37
2024/01/03 09:10:59;;;;;;;2.67;1.00;;;;;;;11.05;94.48;98565.53;5051957;28;20041;-37
2024/01/03 09:13:25;;;;;;;3.50;0.77;;;;;;;11.00;94.86;98539.53;5051799;28;20067;-37
2024/01/03 09:15:51;;;;;;;4.57;0.90;;;;;;;11.11;93.87;98546.00;5051404;28;20087;-36
2024/01/03 09:18:16;;;;;;;5.25;0.88;;;;;;;11.01;94.58;98553.66;5051595;28;20447;-37
2024/01/03 09:20:42;;;;;;;3.22;1.05;;;;;;;10.98;94.14;98559.44;5051484;28;20041;-37
2024/01/03 09:23:07;;;;;;;1.00;0.70;;;;;;;11.04;95.21;98561.25;5052197;28;20120;-37
2024/01/03 09:25:32;;;;;;;3.10;1.05;;;;;;;11.00;95.07;98573.34;5053581;28;20183;-37
2024/01/03 09:27:58;;;;;;;4.45;1.27;;;;;;;11.25;91.72;98557.38;5053468;28;20098;-37
2024/01/03 09:30:24;;;;;;;1.02;0.85;;;;;;;11.35;91.21;98560.38;5053663;28;20040;-37
2024/01/03 09:32:50;;;;;;;2.00;0.88;;;;;;;11.37;91.01;98560.97;5053285;28;20120;-37
2024/01/03 09:35:15;;;;;;;2.42;0.85;;;;;;;11.36;92.27;98562.81;5052982;28;20044;-37
2024/01/03 09:37:41;;;;;;;7.45;1.17;;;;;;;11.26;92.96;98572.31;5051556;28;20036;-36
2024/01/03 09:40:07;;;;;;;4.13;0.73;;;;;;;11.27;93.04;98585.44;5051467;28;20107;-37
2024/01/03 09:42:33;;;;;;;1.38;0.70;;;;;;;11.15;93.50;98568.53;5051582;28;20067;-36
2024/01/03 09:44:59;;;;;;;3.42;1.15;;;;;;;11.11;94.76;98572.66;5051546;28;20032;-36
2024/01/03 09:47:25;;;;;;;3.22;0.73;;;;;;;11.27;94.68;98585.44;5051211;28;20037;-36
2024/01/03 09:49:50;;;;;;;5.00;0.80;;;;;;;11.06;95.86;98589.28;5051391;28;20523;-36
2024/01/03 09:52:16;;;;;;;2.38;0.70;;;;;;;10.93;98.01;98596.56;5051370;28;20041;-39
2024/01/03 09:54:42;;;;;;;1.98;0.70;;;;;;;10.76;100.00;98606.94;5051270;28;20040;-38
2024/01/03 09:57:09;;;;;;;4.22;0.90;;;;;;;10.37;100.00;98608.75;5051077;28;20396;-37
2024/01/03 09:59:35;;;;;;;3.95;0.70;;;;;;;10.39;100.00;98609.34;5051372;28;20481;-38
2024/01/03 10:02:00;;;;;;;2.88;0.88;;;;;;;10.42;100.00;98624.88;5051248;28;20069;-39
2024/01/03 10:04:26;;;;;;;2.53;0.80;;;;;;;10.45;100.00;98616.50;5051257;28;20077;-39
2024/01/03 10:06:54;;;;;;;2.25;0.63;;;;;;;10.83;100.00;98616.50;5050996;28;20040;-38
2024/01/03 10:09:20;;;;;;;4.40;0.98;;;;;;;10.07;100.00;98630.53;5054856;28;20041;-38
2024/01/03 10:11:47;;;;;;;2.63;1.02;;;;;;;9.96;100.00;98647.09;5055119;28;20476;-39
2024/01/03 10:14:20;;;;;;;2.05;0.98;;;;;;;9.85;100.00;98623.00;5054881;28;20041;-39
2024/01/03 10:16:46;;;;;;;2.78;0.90;;;;;;;9.96;100.00;98623.16;5054614;28;20033;-37
2024/01/03 10:19:18;;;;;;;5.05;1.23;;;;;;;10.24;100.00;98640.75;5054895;28;20610;-38
2024/01/03 10:21:51;;;;;;;1.60;1.17;;;;;;;9.95;100.00;98644.66;5054750;28;20443;-38
2024/01/03 10:24:17;;;;;;;4.03;0.90;;;;;;;9.73;100.00;98618.31;5054897;28;20037;-38
2024/01/03 10:26:43;;;;;;;7.47;1.40;;;;;;;9.86;100.00;98656.56;5054339;28;20025;-38
2024/01/03 10:29:10;;;;;;;3.22;1.23;;;;;;;9.66;100.00;98649.41;5054667;28;20148;-38
2024/01/03 10:31:36;;;;;;;5.68;1.40;;;;;;;9.70;100.00;98641.84;5065927;28;20484;-38
2024/01/03 10:34:04;;;;;;;3.00;1.38;;;;;;;9.82;100.00;98650.00;5074328;28;20047;-38
2024/01/03 10:36:32;;;;;;;4.53;1.13;;;;;;;9.85;100.00;98650.44;5074218;28;20044;-39
2024/01/03 10:38:59;;;;;;;5.45;1.40;;;;;;;10.12;100.00;98629.09;5074410;28;20032;-38
2024/01/03 10:41:25;;;;;;;6.22;1.77;;;;;;;10.78;100.00;98639.47;5074555;28;20053;-39
2024/01/03 10:43:51;;;;;;;4.78;1.20;;;;;;;11.46;100.00;98636.94;5074447;28;20043;-38
2024/01/03 10:46:18;;;;;;;7.28;1.33;;;;;;;11.41;100.00;98623.47;5074113;28;20040;-39
2024/01/03 10:48:44;;;;;;;3.80;1.13;;;;;;;11.04;100.00;98634.00;5074411;28;20044;-38
2024/01/03 10:51:12;;;;;;;8.45;1.52;;;;;;;10.91;100.00;98639.41;5074308;28;20286;-38
2024/01/03 10:53:42;;;;;;;3.50;1.10;;;;;;;10.99;100.00;98636.47;5074109;28;20042;-37
2024/01/03 10:56:09;;;;;;;4.07;1.27;;;;;;;10.99;100.00;98639.16;5073842;28;20028;-38
2024/01/03 10:58:39;;;;;;;5.60;1.20;;;;;;;11.09;100.00;98644.00;5074242;28;20032;-39
2024/01/03 11:01:26;;;;;;;1.98;1.05;;;;;;;11.10;100.00;98635.81;5074415;28;20123;-39
2024/01/03 11:04:18;;;;;;;3.00;1.50;;;;;;;11.39;100.00;98631.69;5074098;28;20422;-38
2024/01/03 11:07:13;;;;;;;0.85;0.60;;;;;;;11.50;99.93;98638.16;5073786;28;20036;-39
2024/01/03 11:09:39;;;;;;;4.30;1.20;;;;;;;11.30;100.00;98630.31;5074042;28;20031;-38
2024/01/03 11:12:09;;;;;;;1.75;1.05;;;;;;;11.56;97.62;98623.97;5073919;28;20491;-39
2024/01/03 11:14:35;;;;;;;2.15;0.80;;;;;;;11.38;98.49;98624.72;5073930;28;20045;-38
2024/01/03 11:17:01;;;;;;;4.20;0.88;;;;;;;11.36;98.80;98626.78;5073490;28;20101;-38
2024/01/03 11:19:29;;;;;;;2.40;0.75;;;;;;;11.45;97.45;98640.66;5073778;28;20104;-38
2024/01/03 11:21:55;;;;;;;2.40;0.98;;;;;;;11.60;98.70;98641.13;5073605;28;20082;-38
2024/01/03 11:24:20;;;;;;;1.17;0.73;;;;;;;11.44;96.92;98630.22;5073621;28;20067;-38
2024/01/03 11:26:55;;;;;;;1.83;0.90;;;;;;;11.38;96.82;98615.91;5073347;28;20036;-39
2024/01/03 11:29:35;;;;;;;4.95;1.10;;;;;;;11.51;97.13;98604.31;5073512;28;20060;-38
2024/01/03 11:32:04;;;;;;;2.67;0.98;;;;;;;11.35;97.94;98601.16;5073466;28;20052;-39
2024/01/03 11:34:47;;;;;;;0.90;0.80;;;;;;;11.52;96.35;98612.09;5077226;28;20052;-38
2024/01/03 11:37:16;;;;;;;1.95;0.98;;;;;;;11.41;97.15;98604.81;5072997;28;20033;-38
2024/01/03 11:39:43;;;;;;;1.45;0.90;;;;;;;11.30;98.28;98605.53;5073324;28;20115;-38
2024/01/03 11:42:09;;;;;;;3.72;0.75;;;;;;;11.36;97.17;98601.97;5073146;28;20048;-38
2024/01/03 11:44:35;;;;;;;4.03;0.98;;;;;;;11.46;96.68;98590.81;5073134;28;20082;-38
2024/01/03 11:47:03;;;;;;;2.03;1.10;;;;;;;11.35;97.40;98608.34;5073029;28;20410;-38
2024/01/03 11:49:28;;;;;;;1.63;0.68;;;;;;;11.46;96.51;98606.81;5073202;28;20105;-39
2024/01/03 11:51:55;;;;;;;1.08;0.70;;;;;;;11.61;94.39;98602.78;5073169;28;20029;-39
2024/01/03 11:54:21;;;;;;;1.60;1.10;;;;;;;11.74;92.83;98615.19;5072978;28;20056;-38
2024/01/03 11:56:46;;;;;;;3.03;0.80;;;;;;;11.77;90.02;98613.91;5072716;28;20071;-38
2024/01/03 11:59:12;;;;;;;3.17;0.90;;;;;;;11.87;88.88;98606.28;5073211;28;20036;-39
2024/01/03 12:01:37;;;;;;;3.50;1.20;;;;;;;11.76;90.00;98609.63;5072823;28;20036;-38
2024/01/03 12:04:13;;;;;;;2.88;0.82;;;;;;;11.37;95.17;98620.41;5072932;28;20037;-38
2024/01/03 12:06:42;;;;;;;2.97;1.05;;;;;;;11.05;100.00;98624.16;5072493;28;20472;-39
2024/01/03 12:09:08;;;;;;;2.45;1.10;;;;;;;10.78;100.00;98612.84;5073033;28;20457;-39
2024/01/03 12:11:34;;;;;;;1.65;0.80;;;;;;;10.73;100.00;98621.47;5072750;28;20116;-38
2024/01/03 12:14:00;;;;;;;3.10;0.68;;;;;;;10.52;100.00;98609.28;5072689;28;20043;-39
2024/01/03 12:16:25;;;;;;;2.22;1.23;;;;;;;10.37;100.00;98613.25;5072326;28;20020;-38
2024/01/03 12:18:53;;;;;;;1.42;0.88;;;;;;;10.30;100.00;98621.25;5072531;28;20044;-38
2024/01/03 12:21:18;;;;;;;3.05;0.77;;;;;;;10.34;100.00;98606.50;5072320;28;20093;-39
2024/01/03 12:24:01;;;;;;;1.02;0.60;;;;;;;10.39;100.00;98603.22;5072503;28;20037;-38
2024/01/03 12:26:26;;;;;;;1.80;0.70;;;;;;;10.46;100.00;98593.34;5072162;28;20127;-39
2024/01/03 12:28:59;;;;;;;4.05;1.00;;;;;;;10.54;100.00;98588.59;5072440;28;20072;-39
2024/01/03 12:31:25;;;;;;;7.40;1.05;;;;;;;10.38;100.00;98589.09;5071956;28;20071;-38
2024/01/03 12:33:50;;;;;;;1.38;0.50;;;;;;;10.51;100.00;98585.56;5072237;28;20063;-39
2024/01/03 12:36:16;;;;;;;0.82;0.60;;;;;;;10.66;100.00;98582.59;5071876;28;20475;-39
2024/01/03 12:38:41;;;;;;;1.17;0.65;;;;;;;10.93;100.00;98578.72;5072376;28;20080;-38
2024/01/03 12:41:07;;;;;;;0.63;0.40;;;;;;;11.05;100.00;98568.19;5072293;28;20132;-39
2024/01/03 12:43:35;;;;;;;2.17;0.68;;;;;;;11.07;100.00;98568.78;5072175;28;20051;-39
2024/01/03 12:46:00;;;;;;;0.43;0.43;;;;;;;11.08;100.00;98567.75;5071857;28;20127;-39
2024/01/03 12:48:26;;;;;;;0.93;0.40;;;;;;;11.04;100.00;98558.56;5071871;28;20114;-38
2024/01/03 12:50:52;;;;;;;0.70;0.50;;;;;;;10.97;100.00;98553.28;5072079;28;20411;-38
2024/01/03 12:53:20;;;;;;;0.85;0.60;;;;;;;11.00;100.00;98558.19;5072168;28;20036;-37
2024/01/03 12:55:46;;;;;;;0.40;0.40;;;;;;;11.22;99.58;98549.81;5071872;28;20044;-37
2024/01/03 12:58:12;;;;;;;1.23;0.60;;;;;;;11.36;97.66;98549.47;5071833;28;20039;-38
2024/01/03 13:00:38;;;;;;;3.10;0.55;;;;;;;11.31;98.25;98554.66;5071957;28;20055;-38
2024/01/03 13:03:03;;;;;;;3.70;0.70;;;;;;;11.41;99.11;98549.66;5071973;28;20549;-38
2024/01/03 13:05:28;;;;;;;3.28;0.90;;;;;;;11.55;96.64;98545.00;5071823;28;20078;-37
2024/01/03 13:07:54;;;;;;;2.00;0.73;;;;;;;11.49;96.77;98548.53;5071740;28;20044;-38
2024/01/03 13:10:20;;;;;;;4.03;0.90;;;;;;;11.40;99.08;98547.19;5071975;28;20083;-38
2024/01/03 13:12:46;;;;;;;0.80;0.70;;;;;;;11.64;93.26;98540.19;5071863;28;20127;-38
2024/01/03 13:15:12;;;;;;;3.55;0.70;;;;;;;11.69;90.60;98541.16;5071736;28;20111;-39
2024/01/03 13:17:37;;;;;;;2.47;0.80;;;;;;;11.76;89.62;98545.59;5071463;28;20487;-39
2024/01/03 13:20:03;;;;;;;2.58;0.85;;;;;;;11.78;89.01;98538.19;5071795;28;20119;-38
2024/01/03 13:22:28;;;;;;;1.95;0.60;;;;;;;11.80;87.31;98533.44;5071621;28;20518;-36
2024/01/03 13:24:53;;;;;;;1.55;0.50;;;;;;;11.72;90.64;98557.75;5071766;28;20051;-36
2024/01/03 13:27:19;;;;;;;1.23;0.50;;;;;;;11.56;91.80;98546.63;5071513;28;20048;-36
2024/01/03 13:29:45;;;;;;;1.75;0.70;;;;;;;11.45;93.78;98551.88;5071718;28;20036;-36
2024/01/03 13:32:11;;;;;;;0.88;0.80;;;;;;;11.35;94.50;98555.84;5071584;28;20492;-36
2024/01/03 13:34:36;;;;;;;3.05;0.55;;;;;;;11.26;95.65;98549.16;5071401;28;20036;-39
2024/01/03 13:37:02;;;;;;;3.00;0.40;;;;;;;11.27;94.62;98547.31;5077664;28;20040;-38
2024/01/03 13:39:28;;;;;;;0.82;0.52;;;;;;;11.16;96.46;98546.19;5071819;28;20044;-38
2024/01/03 13:41:54;;;;;;;0.93;0.40;;;;;;;11.37;92.91;98552.97;5071508;28;20045;-39
2024/01/03 13:44:19;;;;;;;0.85;0.38;;;;;;;11.44;91.03;98519.06;5075387;28;20047;-38
2024/01/03 13:46:45;;;;;;;0.25;0.25;;;;;;;11.62;86.87;98545.75;5075258;28;20460;-39
2024/01/03 13:49:10;;;;;;;3.00;0.60;;;;;;;11.56;88.15;98535.16;5075445;28;20041;-37
2024/01/03 13:51:35;;;;;;;0.60;0.40;;;;;;;11.74;86.10;98543.16;5074182;28;20080;-38
2024/01/03 13:54:01;;;;;;;0.88;0.40;;;;;;;11.68;86.42;98544.88;5075463;28;20040;-38
2024/01/03 13:56:26;;;;;;;1.38;0.73;;;;;;;11.80;86.16;98547.63;5074989;28;20040;-38
2024/01/03 13:58:53;;;;;;;1.90;0.60;;;;;;;11.74;86.64;98545.84;5075302;28;20089;-38
2024/01/03 14:01:20;;;;;;;1.23;0.60;;;;;;;11.48;90.92;98536.25;5075167;28;20032;-37
2024/01/03 14:03:46;;;;;;;1.98;0.70;;;;;;;11.27;94.03;98540.13;5075277;28;20476;-38
2024/01/03 14:06:12;;;;;;;1.30;0.50;;;;;;;11.17;94.03;98531.00;5074739;28;20052;-38
2024/01/03 14:08:38;;;;;;;5.53;1.00;;;;;;;11.05;95.91;98531.72;5075202;28;20024;-39
2024/01/03 14:11:04;;;;;;;1.63;0.60;;;;;;;11.00;96.60;98533.38;5075079;28;20032;-38
2024/01/03 14:13:31;;;;;;;1.75;0.50;;;;;;;10.96;96.89;98519.69;5074926;28;20032;-37
2024/01/03 14:15:58;;;;;;;2.60;0.70;;;;;;;11.01;97.40;98508.38;5074512;28;20029;-36
2024/01/03 14:18:23;;;;;;;0.90;0.50;;;;;;;10.99;97.67;98513.94;5074871;28;20032;-39
2024/01/03 14:20:49;;;;;;;1.52;0.57;;;;;;;10.98;97.60;98503.50;5074765;28;20487;-38
2024/01/03 14:23:14;;;;;;;3.67;0.80;;;;;;;11.00;97.15;98496.09;5074861;28;20052;-39
2024/01/03 14:25:39;;;;;;;0.63;0.60;;;;;;;10.98;97.37;98490.97;5074832;28;20127;-38
2024/01/03 14:28:06;;;;;;;1.30;0.80;;;;;;;11.00;97.29;98491.56;5073204;28;20041;-38
2024/01/03 14:30:32;;;;;;;0.50;0.50;;;;;;;11.05;96.65;98481.09;5074543;28;20135;-38
2024/01/03 14:32:57;;;;;;;3.08;0.50;;;;;;;11.13;95.53;98482.66;5074659;28;20120;-38
2024/01/03 14:35:23;;;;;;;1.50;0.70;;;;;;;10.99;96.71;98476.63;5074618;28;20037;-37
2024/01/03 14:37:49;;;;;;;2.20;0.90;;;;;;;10.92;97.25;98480.38;5074442;28;20047;-36
2024/01/03 14:40:15;;;;;;;1.17;0.68;;;;;;;10.86;98.06;98472.22;5074591;28;20040;-37
2024/01/03 14:42:47;;;;;;;2.50;0.70;;;;;;;10.86;96.52;98482.88;5074358;28;20043;-39
2024/01/03 14:45:13;;;;;;;2.08;0.80;;;;;;;10.99;95.96;98486.47;5074536;28;20044;-38
2024/01/03 14:47:38;;;;;;;0.80;0.55;;;;;;;10.94;96.62;98479.13;5074114;28;20025;-40
2024/01/03 14:50:04;;;;;;;1.77;0.52;;;;;;;11.00;95.05;98478.25;5074587;28;20124;-37
2024/01/03 14:52:29;;;;;;;0.85;0.55;;;;;;;11.03;93.62;98477.84;5074365;28;20033;-38
2024/01/03 14:54:55;;;;;;;3.70;0.77;;;;;;;11.02;93.40;98478.88;5073897;28;20514;-38
2024/01/03 14:57:20;;;;;;;2.50;0.75;;;;;;;11.02;93.12;98472.69;5070447;28;20041;-39
2024/01/03 14:59:46;;;;;;;1.90;0.63;;;;;;;11.04;92.57;98466.13;5063329;28;20032;-36
2024/01/03 15:02:11;;;;;;;2.83;0.93;;;;;;;11.06;91.05;98464.06;5063571;28;20037;-39
2024/01/03 15:04:37;;;;;;;3.22;0.70;;;;;;;11.02;91.26;98462.03;5063566;28;20121;-37
2024/01/03 15:07:03;;;;;;;0.73;0.60;;;;;;;11.00;90.83;98456.94;5070881;28;20071;-37
2024/01/03 15:09:29;;;;;;;0.52;0.35;;;;;;;11.09;89.12;98462.81;5074121;28;20123;-39
2024/01/03 15:11:55;;;;;;;0.57;0.47;;;;;;;11.01;90.45;98469.22;5074102;28;20060;-39
2024/01/03 15:14:21;;;;;;;2.22;0.55;;;;;;;11.00;91.11;98459.59;5073918;28;20074;-39
2024/01/03 15:16:47;;;;;;;2.13;0.68;;;;;;;10.98;92.67;98463.53;5073552;28;20062;-39
2024/01/03 15:19:13;;;;;;;1.50;0.40;;;;;;;10.95;93.38;98447.97;5073889;28;20075;-40
2024/01/03 15:21:59;;;;;;;3.70;0.85;;;;;;;10.83;94.92;98450.56;5073558;28;20072;-38
2024/01/03 15:24:25;;;;;;;1.42;0.60;;;;;;;10.81;95.96;98453.41;5073785;28;20085;-38
2024/01/03 15:26:51;;;;;;;1.92;0.80;;;;;;;10.83;95.59;98446.03;5073526;28;20021;-40
2024/01/03 15:29:16;;;;;;;0.77;0.50;;;;;;;10.82;95.14;98440.91;5073774;28;20043;-39
2024/01/03 15:31:42;;;;;;;2.13;0.82;;;;;;;10.84;94.88;98442.34;5073716;28;20028;-38
2024/01/03 15:34:07;;;;;;;0.63;0.50;;;;;;;10.86;94.18;98434.13;5073488;28;20079;-40
2024/01/03 15:36:36;;;;;;;1.08;0.63;;;;;;;10.83;94.69;98439.91;5073152;28;20115;-40
2024/01/03 15:39:02;;;;;;;2.22;0.80;;;;;;;10.91;94.62;98431.63;5073523;28;20048;-38
2024/01/03 15:41:27;;;;;;;1.38;0.68;;;;;;;10.84;94.68;98425.53;5073294;28;20025;-37
2024/01/03 15:43:53;;;;;;;3.33;0.80;;;;;;;10.87;94.71;98419.75;5073393;28;20464;-37
2024/01/03 15:46:18;;;;;;;2.42;0.63;;;;;;;11.05;91.98;98419.81;5072831;28;20029;-37
2024/01/03 15:48:43;;;;;;;1.30;0.70;;;;;;;10.97;92.81;98413.94;5073294;28;20056;-37
2024/01/03 15:51:10;;;;;;;1.10;0.75;;;;;;;10.99;92.28;98419.88;5073155;28;20594;-37
2024/01/03 15:53:35;;;;;;;5.10;0.95;;;;;;;11.00;94.00;98414.31;5073227;28;20040;-37
2024/01/03 15:56:01;;;;;;;2.60;0.75;;;;;;;10.94;93.90;98415.19;5069593;28;20041;-37
2024/01/03 15:58:26;;;;;;;0.90;0.50;;;;;;;10.91;94.13;98404.97;5061793;28;20060;-37
2024/01/03 16:00:51;;;;;;;1.38;0.80;;;;;;;10.84;95.20;98410.38;5063400;28;20044;-37
2024/01/03 16:03:17;;;;;;;2.55;0.77;;;;;;;10.70;98.87;98429.38;5062664;28;20041;-37
2024/01/03 16:05:42;;;;;;;2.38;1.20;;;;;;;10.54;100.00;98430.69;5061798;28;20028;-35
2024/01/03 16:08:07;;;;;;;2.33;0.90;;;;;;;10.33;100.00;98437.22;5064895;28;20028;-37
2024/01/03 16:10:33;;;;;;;2.83;0.85;;;;;;;10.20;100.00;98427.44;5061900;28;20041;-37
2024/01/03 16:12:58;;;;;;;2.10;0.80;;;;;;;10.27;100.00;98411.47;5070326;28;20059;-36
2024/01/03 16:15:24;;;;;;;2.42;0.88;;;;;;;10.10;100.00;98429.72;5064985;28;20044;-38
2024/01/03 16:17:49;;;;;;;3.03;0.82;;;;;;;9.96;100.00;98421.03;5065378;28;20041;-38
2024/01/03 16:20:15;;;;;;;3.00;1.00;;;;;;;9.87;100.00;98419.66;5064536;28;20060;-37
2024/01/03 16:22:40;;;;;;;3.30;1.00;;;;;;;9.82;100.00;98400.84;5065760;28;20029;-37
2024/01/03 16:25:10;;;;;;;1.75;0.85;;;;;;;9.91;100.00;98388.94;5062247;28;20394;-37
2024/01/03 16:27:37;;;;;;;3.50;0.90;;;;;;;9.77;100.00;98382.06;5060782;28;20037;-37
2024/01/03 16:30:03;;;;;;;2.72;0.85;;;;;;;9.76;100.00;98383.09;5062531;28;20099;-36
2024/01/03 16:32:29;;;;;;;4.13;1.20;;;;;;;9.79;100.00;98382.69;5062614;28;20037;-37
2024/01/03 16:34:54;;;;;;;2.92;1.02;;;;;;;9.69;100.00;98395.59;5060999;28;20098;-37
2024/01/03 16:37:20;;;;;;;2.20;0.82;;;;;;;9.59;100.00;98408.56;5062542;28;20021;-36
2024/01/03 16:39:45;;;;;;;2.30;0.80;;;;;;;9.52;100.00;98400.59;5061820;28;20068;-38
2024/01/03 16:42:11;;;;;;;1.45;0.55;;;;;;;9.57;100.00;98423.88;5061244;28;20071;-38
2024/01/03 16:44:37;;;;;;;1.33;0.88;;;;;;;9.47;100.00;98430.47;5062723;28;20028;-39
2024/01/03 16:47:02;;;;;;;2.03;0.85;;;;;;;9.36;100.00;98447.03;5061027;28;20044;-38
2024/01/03 16:49:28;;;;;;;2.00;0.77;;;;;;;9.27;100.00;98440.34;5061603;28;20548;-39